createdAt,value
2016-11-26T00:00:37.283Z,95.26
2016-11-26T00:01:53.570Z,95.26
2016-11-26T00:03:08.474Z,95.45
2016-11-26T00:04:22.891Z,95.83
2016-11-26T00:05:36.521Z,95.64
2016-11-26T00:06:51.403Z,95.83
2016-11-26T00:08:09.148Z,95.54
2016-11-26T00:09:24.666Z,95.83
2016-11-26T00:10:41.584Z,96.21
2016-11-26T00:11:56.266Z,95.92
2016-11-26T00:13:09.461Z,95.92
2016-11-26T00:14:24.067Z,95.83
2016-11-26T00:15:37.519Z,95.83
2016-11-26T00:16:54.050Z,95.83
2016-11-26T00:18:09.087Z,95.92
2016-11-26T00:19:22.970Z,95.73
2016-11-26T00:20:37.536Z,95.83
2016-11-26T00:21:54.134Z,95.26
2016-11-26T00:23:07.679Z,95.26
2016-11-26T00:24:23.777Z,95.26
2016-11-26T00:25:38.897Z,95.26
2016-11-26T00:26:54.970Z,95.17
2016-11-26T00:28:08.365Z,95.07
2016-11-26T00:29:23.605Z,95.45
2016-11-26T00:30:40.237Z,95.07
2016-11-26T00:31:54.613Z,95.64
2016-11-26T00:33:11.187Z,96.21
2016-11-26T00:34:21.740Z,95.64
2016-11-26T00:35:36.056Z,95.64
2016-11-26T00:36:50.957Z,95.83
2016-11-26T00:38:04.704Z,95.26
2016-11-26T00:39:19.830Z,95.07
2016-11-26T00:40:36.112Z,95.54
2016-11-26T00:41:51.971Z,95.54
2016-11-26T00:43:08.666Z,95.26
2016-11-26T00:44:23.831Z,95.64
2016-11-26T00:45:39.864Z,95.83
2016-11-26T00:46:55.101Z,95.83
2016-11-26T00:48:10.208Z,95.36
2016-11-26T00:49:26.253Z,95.64
2016-11-26T00:50:42.174Z,96.11
2016-11-26T00:51:55.892Z,95.64
2016-11-26T00:53:11.910Z,95.26
2016-11-26T00:54:26.181Z,95.26
2016-11-26T00:55:39.405Z,95.73
2016-11-26T00:56:55.633Z,95.83
2016-11-26T00:58:11.189Z,95.73
2016-11-26T00:59:25.838Z,96.21
2016-11-26T01:00:37.823Z,95.92
2016-11-26T01:01:51.131Z,96.21
2016-11-26T01:03:08.014Z,96.11
2016-11-26T01:04:24.346Z,96.11
2016-11-26T01:05:38.851Z,95.64
2016-11-26T01:06:54.899Z,95.83
2016-11-26T01:08:09.193Z,95.26
2016-11-26T01:09:23.646Z,95.45
2016-11-26T01:10:40.612Z,95.83
2016-11-26T01:11:56.532Z,94.98
2016-11-26T01:13:11.541Z,95.17
2016-11-26T01:14:27.447Z,95.26
2016-11-26T01:15:42.928Z,95.45
2016-11-26T01:16:58.419Z,95.4
2016-11-26T01:18:13.842Z,95.31
2016-11-26T01:19:29.759Z,95.4
2016-11-26T01:20:46.050Z,95.26
2016-11-26T01:22:02.367Z,95.4
2016-11-26T01:23:18.283Z,94.93
2016-11-26T01:24:32.970Z,95.45
2016-11-26T01:25:49.261Z,95.36
2016-11-26T01:27:05.623Z,95.03
2016-11-26T01:28:21.502Z,94.84
2016-11-26T01:29:34.698Z,95.21
2016-11-26T01:30:49.132Z,95.4
2016-11-26T01:32:04.275Z,95.12
2016-11-26T01:33:17.343Z,95.12
2016-11-26T01:34:31.869Z,95.12
2016-11-26T01:35:47.802Z,95.31
2016-11-26T01:37:01.347Z,95.12
2016-11-26T01:38:17.927Z,95.31
2016-11-26T01:39:34.497Z,95.31
2016-11-26T01:40:49.586Z,95.21
2016-11-26T01:42:05.488Z,95.21
2016-11-26T01:43:21.375Z,95.12
2016-11-26T01:44:36.652Z,95.21
2016-11-26T01:45:51.341Z,95.4
2016-11-26T01:47:07.740Z,95.31
2016-11-26T01:48:23.656Z,95.21
2016-11-26T01:49:40.308Z,95.31
2016-11-26T01:50:55.797Z,94.93
2016-11-26T01:52:09.240Z,95.21
2016-11-26T01:53:23.704Z,95.4
2016-11-26T01:54:40.570Z,95.4
2016-11-26T01:55:53.996Z,95.4
2016-11-26T01:57:07.337Z,95.31
2016-11-26T01:58:22.659Z,95.12
2016-11-26T01:59:38.712Z,95.12
2016-11-26T02:00:53.629Z,95.12
2016-11-26T02:02:07.952Z,95.4
2016-11-26T02:03:22.960Z,94.93
2016-11-26T02:04:36.375Z,95.03
2016-11-26T02:05:52.766Z,95.59
2016-11-26T02:07:06.179Z,95.12
2016-11-26T02:08:22.647Z,95.03
2016-11-26T02:09:37.078Z,95.12
2016-11-26T02:10:53.843Z,95.31
2016-11-26T02:12:10.100Z,95.03
2016-11-26T02:13:25.327Z,95.59
2016-11-26T02:14:41.422Z,95.12
2016-11-26T02:15:56.382Z,95.12
2016-11-26T02:17:10.198Z,95.4
2016-11-26T02:18:24.621Z,95.21
2016-11-26T02:19:39.376Z,95.12
2016-11-26T02:20:53.818Z,95.12
2016-11-26T02:22:08.643Z,94.93
2016-11-26T02:23:24.548Z,95.31
2016-11-26T02:24:40.846Z,95.31
2016-11-26T02:25:53.660Z,95.31
2016-11-26T02:27:09.591Z,95.12
2016-11-26T02:28:25.707Z,94.84
2016-11-26T02:29:41.032Z,94.84
2016-11-26T02:30:54.484Z,94.84
2016-11-26T02:32:09.733Z,95.31
2016-11-26T02:33:25.924Z,95.5
2016-11-26T02:34:40.672Z,95.5
2016-11-26T02:35:57.315Z,95.12
2016-11-26T02:37:10.114Z,94.84
2016-11-26T02:38:24.890Z,95.4
2016-11-26T02:39:40.918Z,95.21
2016-11-26T02:40:55.674Z,95.12
2016-11-26T02:42:10.428Z,95.12
2016-11-26T02:43:25.453Z,95.59
2016-11-26T02:44:41.615Z,95.59
2016-11-26T02:45:57.654Z,95.5
2016-11-26T02:47:13.973Z,95.4
2016-11-26T02:48:30.682Z,95.5
2016-11-26T02:49:42.447Z,95.4
2016-11-26T02:50:55.950Z,95.4
2016-11-26T02:52:10.172Z,95.4
2016-11-26T02:53:24.704Z,95.03
2016-11-26T02:54:40.171Z,95.03
2016-11-26T02:55:56.078Z,95.03
2016-11-26T02:57:10.338Z,94.84
2016-11-26T02:58:25.136Z,95.12
2016-11-26T02:59:38.270Z,95.12
2016-11-26T03:00:52.976Z,94.84
2016-11-26T03:02:09.354Z,95.31
2016-11-26T03:03:24.518Z,95.21
2016-11-26T03:04:40.131Z,94.93
2016-11-26T03:05:55.618Z,94.84
2016-11-26T03:07:10.455Z,94.93
2016-11-26T03:08:26.317Z,95.4
2016-11-26T03:09:42.829Z,95.5
2016-11-26T03:10:59.149Z,95.31
2016-11-26T03:12:15.206Z,95.59
2016-11-26T03:13:31.365Z,95.78
2016-11-26T03:14:47.247Z,95.59
2016-11-26T03:16:02.395Z,95.59
2016-11-26T03:17:15.529Z,96.06
2016-11-26T03:18:29.876Z,95.68
2016-11-26T03:19:46.159Z,96.16
2016-11-26T03:20:59.605Z,96.16
2016-11-26T03:22:15.121Z,95.87
2016-11-26T03:23:31.251Z,96.35
2016-11-26T03:24:46.880Z,95.87
2016-11-26T03:26:03.031Z,95.87
2016-11-26T03:27:19.951Z,95.68
2016-11-26T03:28:36.297Z,96.06
2016-11-26T03:29:52.586Z,95.78
2016-11-26T03:31:08.872Z,95.12
2016-11-26T03:32:20.882Z,95.5
2016-11-26T03:33:34.158Z,95.12
2016-11-26T03:34:48.494Z,95.4
2016-11-26T03:36:04.629Z,95.5
2016-11-26T03:37:20.676Z,95.5
2016-11-26T03:38:35.531Z,95.21
2016-11-26T03:39:51.168Z,95.4
2016-11-26T03:41:05.689Z,95.03
2016-11-26T03:42:21.179Z,95.21
2016-11-26T03:43:35.385Z,95.21
2016-11-26T03:44:51.275Z,95.31
2016-11-26T03:46:06.796Z,95.21
2016-11-26T03:47:19.804Z,95.4
2016-11-26T03:48:34.500Z,95.5
2016-11-26T03:49:45.976Z,95.59
2016-11-26T03:50:58.132Z,95.03
2016-11-26T03:52:13.799Z,95.4
2016-11-26T03:53:27.831Z,95.21
2016-11-26T03:54:41.076Z,95.12
2016-11-26T03:55:54.304Z,95.12
2016-11-26T03:57:11.005Z,95.12
2016-11-26T03:58:26.906Z,95.21
2016-11-26T03:59:41.416Z,95.59
2016-11-26T04:00:56.959Z,95.4
2016-11-26T04:02:09.949Z,95.5
2016-11-26T04:03:25.111Z,95.21
2016-11-26T04:04:38.378Z,95.21
2016-11-26T04:05:51.999Z,95.21
2016-11-26T04:07:07.280Z,95.21
2016-11-26T04:08:21.569Z,95.59
2016-11-26T04:09:37.605Z,96.16
2016-11-26T04:10:54.185Z,96.06
2016-11-26T04:12:09.617Z,96.06
2016-11-26T04:13:21.313Z,95.78
2016-11-26T04:14:32.839Z,96.25
2016-11-26T04:15:47.518Z,96.25
2016-11-26T04:16:59.551Z,95.68
2016-11-26T04:18:13.137Z,95.4
2016-11-26T04:19:29.048Z,95.21
2016-11-26T04:20:44.037Z,95.68
2016-11-26T04:21:58.958Z,95.12
2016-11-26T04:23:13.794Z,95.4
2016-11-26T04:24:30.695Z,95.03
2016-11-26T04:25:47.126Z,95.31
2016-11-26T04:27:02.220Z,95.4
2016-11-26T04:28:18.803Z,95.03
2016-11-26T04:29:32.477Z,95.21
2016-11-26T04:30:46.701Z,95.31
2016-11-26T04:32:01.430Z,95.03
2016-11-26T04:33:16.225Z,95.4
2016-11-26T04:34:31.221Z,95.4
2016-11-26T04:35:44.278Z,94.93
2016-11-26T04:36:59.669Z,95.4
2016-11-26T04:38:13.344Z,95.5
2016-11-26T04:39:26.485Z,95.21
2016-11-26T04:40:39.907Z,95.5
2016-11-26T04:41:54.542Z,94.84
2016-11-26T04:43:11.011Z,95.12
2016-11-26T04:44:27.780Z,95.12
2016-11-26T04:45:40.190Z,95.12
2016-11-26T04:46:56.100Z,95.03
2016-11-26T04:48:11.097Z,94.84
2016-11-26T04:49:22.928Z,95.12
2016-11-26T04:50:37.465Z,95.4
2016-11-26T04:51:51.892Z,95.12
2016-11-26T04:53:07.061Z,95.12
2016-11-26T04:54:20.715Z,95.21
2016-11-26T04:55:34.949Z,95.4
2016-11-26T04:56:48.640Z,95.4
2016-11-26T04:58:03.098Z,95.21
2016-11-26T04:59:18.884Z,95.12
2016-11-26T05:00:33.647Z,94.93
2016-11-26T05:01:48.785Z,95.12
2016-11-26T05:03:03.845Z,94.84
2016-11-26T05:04:16.667Z,95.21
2016-11-26T05:05:30.937Z,95.21
2016-11-26T05:06:44.936Z,95.4
2016-11-26T05:07:56.856Z,95.5
2016-11-26T05:09:12.391Z,95.31
2016-11-26T05:10:29.243Z,95.31
2016-11-26T05:11:44.373Z,94.84
2016-11-26T05:12:58.028Z,94.93
2016-11-26T05:14:10.991Z,94.46
2016-11-26T05:15:26.382Z,95.12
2016-11-26T05:16:40.800Z,94.65
2016-11-26T05:17:55.017Z,95.21
2016-11-26T05:19:09.850Z,95.4
2016-11-26T05:20:22.924Z,94.84
2016-11-26T05:21:38.435Z,95.03
2016-11-26T05:22:52.892Z,95.21
2016-11-26T05:24:07.931Z,95.31
2016-11-26T05:25:23.004Z,95.5
2016-11-26T05:26:38.222Z,95.12
2016-11-26T05:27:52.938Z,95.4
2016-11-26T05:29:08.977Z,95.31
2016-11-26T05:30:23.115Z,95.12
2016-11-26T05:31:36.252Z,95.12
2016-11-26T05:32:51.905Z,95.03
2016-11-26T05:34:06.625Z,94.93
2016-11-26T05:35:22.906Z,95.31
2016-11-26T05:36:38.531Z,95.4
2016-11-26T05:37:55.414Z,95.12
2016-11-26T05:39:08.893Z,95.12
2016-11-26T05:40:23.574Z,95.4
2016-11-26T05:41:38.182Z,95.4
2016-11-26T05:42:54.096Z,95.21
2016-11-26T05:44:10.395Z,95.12
2016-11-26T05:45:26.527Z,95.4
2016-11-26T05:46:43.088Z,95.12
2016-11-26T05:47:57.340Z,95.21
2016-11-26T05:49:12.111Z,95.4
2016-11-26T05:50:28.387Z,95.4
2016-11-26T05:51:44.260Z,95.12
2016-11-26T05:52:58.452Z,94.84
2016-11-26T05:54:13.977Z,95.12
2016-11-26T05:55:30.306Z,94.93
2016-11-26T05:56:42.091Z,94.84
2016-11-26T05:57:56.520Z,94.79
2016-11-26T05:59:11.847Z,94.79
2016-11-26T06:00:27.194Z,95.03
2016-11-26T06:01:41.803Z,94.84
2016-11-26T06:02:54.611Z,94.79
2016-11-26T06:04:09.016Z,94.84
2016-11-26T06:05:25.322Z,95.07
2016-11-26T06:06:37.084Z,95.26
2016-11-26T06:07:51.833Z,94.93
2016-11-26T06:09:06.680Z,95.4
2016-11-26T06:10:23.419Z,95.31
2016-11-26T06:11:37.246Z,95.5
2016-11-26T06:12:52.165Z,95.5
2016-11-26T06:14:05.686Z,95.12
2016-11-26T06:15:19.291Z,95.21
2016-11-26T06:16:34.192Z,95.12
2016-11-26T06:17:50.919Z,95.31
2016-11-26T06:19:04.665Z,95.31
2016-11-26T06:20:20.806Z,95.12
2016-11-26T06:21:36.277Z,95.31
2016-11-26T06:22:51.276Z,95.12
2016-11-26T06:24:04.509Z,94.79
2016-11-26T06:25:19.658Z,94.98
2016-11-26T06:26:36.027Z,94.84
2016-11-26T06:27:52.173Z,94.84
2016-11-26T06:29:07.292Z,94.84
2016-11-26T06:30:21.954Z,94.79
2016-11-26T06:31:36.877Z,95.17
2016-11-26T06:32:51.214Z,94.79
2016-11-26T06:34:07.093Z,95.03
2016-11-26T06:35:21.968Z,95.07
2016-11-26T06:36:35.979Z,94.98
2016-11-26T06:37:50.798Z,95.26
2016-11-26T06:39:04.594Z,95.26
2016-11-26T06:40:20.624Z,95.07
2016-11-26T06:41:34.104Z,94.79
2016-11-26T06:42:46.981Z,94.7
2016-11-26T06:44:02.161Z,94.79
2016-11-26T06:45:17.368Z,94.6
2016-11-26T06:46:33.773Z,94.6
2016-11-26T06:47:50.453Z,94.89
2016-11-26T06:49:07.179Z,94.6
2016-11-26T06:50:22.117Z,94.7
2016-11-26T06:51:37.080Z,94.89
2016-11-26T06:52:52.703Z,94.79
2016-11-26T06:54:08.900Z,94.79
2016-11-26T06:55:20.893Z,94.98
2016-11-26T06:56:37.439Z,94.6
2016-11-26T06:57:52.554Z,94.89
2016-11-26T06:59:05.851Z,94.79
2016-11-26T07:00:17.630Z,95.07
2016-11-26T07:01:32.943Z,95.07
2016-11-26T07:02:49.486Z,94.79
2016-11-26T07:04:05.952Z,94.6
2016-11-26T07:05:20.442Z,94.79
2016-11-26T07:06:35.210Z,95.07
2016-11-26T07:07:51.783Z,95.26
2016-11-26T07:09:07.144Z,94.98
2016-11-26T07:10:20.444Z,95.07
2016-11-26T07:11:33.815Z,95.36
2016-11-26T07:12:48.822Z,95.07
2016-11-26T07:14:04.732Z,95.17
2016-11-26T07:15:18.105Z,95.17
2016-11-26T07:16:31.667Z,95.54
2016-11-26T07:17:46.337Z,96.01
2016-11-26T07:18:59.634Z,95.73
2016-11-26T07:20:16.355Z,95.5
2016-11-26T07:21:30.688Z,96.25
2016-11-26T07:22:45.811Z,95.87
2016-11-26T07:23:59.394Z,95.78
2016-11-26T07:25:13.112Z,95.97
2016-11-26T07:26:26.494Z,95.5
2016-11-26T07:27:43.076Z,95.68
2016-11-26T07:28:59.302Z,95.68
2016-11-26T07:30:12.850Z,95.31
2016-11-26T07:31:28.079Z,95.59
2016-11-26T07:32:44.005Z,95.4
2016-11-26T07:34:00.757Z,95.21
2016-11-26T07:35:15.437Z,95.12
2016-11-26T07:36:31.155Z,95.21
2016-11-26T07:37:47.952Z,95.12
2016-11-26T07:39:02.950Z,95.5
2016-11-26T07:40:19.649Z,95.31
2016-11-26T07:41:34.329Z,95.59
2016-11-26T07:42:51.442Z,95.87
2016-11-26T07:44:04.797Z,96.16
2016-11-26T07:45:18.695Z,96.06
2016-11-26T07:46:32.327Z,96.06
2016-11-26T07:47:46.596Z,95.78
2016-11-26T07:49:02.071Z,95.68
2016-11-26T07:50:17.631Z,95.78
2016-11-26T07:51:31.993Z,96.11
2016-11-26T07:52:46.704Z,95.92
2016-11-26T07:54:00.971Z,96.3
2016-11-26T07:55:17.019Z,95.73
2016-11-26T07:56:30.293Z,95.26
2016-11-26T07:57:46.346Z,95.26
2016-11-26T07:58:58.209Z,94.6
2016-11-26T08:00:11.187Z,94.98
2016-11-26T08:01:26.125Z,94.98
2016-11-26T08:02:38.927Z,94.7
2016-11-26T08:03:52.500Z,94.79
2016-11-26T08:05:07.673Z,94.7
2016-11-26T08:06:23.000Z,95.36
2016-11-26T08:07:38.495Z,95.17
2016-11-26T08:08:55.084Z,95.36
2016-11-26T08:10:10.032Z,94.89
2016-11-26T08:11:26.500Z,95.36
2016-11-26T08:12:41.357Z,95.21
2016-11-26T08:13:53.594Z,94.56
2016-11-26T08:15:08.197Z,95.31
2016-11-26T08:16:24.732Z,94.56
2016-11-26T08:17:41.687Z,94.37
2016-11-26T08:18:57.710Z,94.74
2016-11-26T08:20:12.911Z,94.37
2016-11-26T08:21:26.117Z,94.23
2016-11-26T08:22:42.304Z,94.32
2016-11-26T08:23:55.342Z,93.56
2016-11-26T08:25:10.542Z,93.28
2016-11-26T08:26:27.194Z,93.28
2016-11-26T08:27:42.291Z,93.18
2016-11-26T08:28:58.759Z,92.8
2016-11-26T08:30:14.278Z,92.29
2016-11-26T08:31:29.261Z,91.24
2016-11-26T08:32:43.321Z,90.86
2016-11-26T08:33:57.262Z,90.67
2016-11-26T08:35:12.101Z,90.11
2016-11-26T08:36:28.398Z,90.06
2016-11-26T08:37:43.725Z,89.2
2016-11-26T08:38:58.008Z,87.92
2016-11-26T08:40:13.199Z,85.65
2016-11-26T08:41:25.154Z,85.93
2016-11-26T08:42:40.683Z,85.69
2016-11-26T08:43:56.982Z,84.08
2016-11-26T08:45:12.516Z,83.04
2016-11-26T08:46:27.754Z,83.32
2016-11-26T08:47:39.781Z,83.42
2016-11-26T08:48:56.163Z,82.47
2016-11-26T08:50:09.601Z,82.47
2016-11-26T08:51:25.670Z,81.33
2016-11-26T08:52:41.352Z,81.05
2016-11-26T08:53:53.801Z,80.19
2016-11-26T08:55:10.197Z,78.96
2016-11-26T08:56:24.658Z,79.25
2016-11-26T08:57:38.167Z,79.87
2016-11-26T08:58:54.784Z,80.44
2016-11-26T09:00:09.471Z,80.53
2016-11-26T09:01:26.442Z,78.87
2016-11-26T09:02:42.370Z,76.97
2016-11-26T09:03:58.428Z,75.84
2016-11-26T09:05:13.517Z,75.31
2016-11-26T09:06:30.498Z,75.4
2016-11-26T09:07:46.963Z,73.31
2016-11-26T09:09:00.493Z,71.07
2016-11-26T09:10:17.205Z,69.74
2016-11-26T09:11:33.394Z,70.47
2016-11-26T09:12:48.502Z,69.71
2016-11-26T09:14:04.704Z,69.99
2016-11-26T09:15:19.801Z,69.74
2016-11-26T09:16:36.660Z,69.84
2016-11-26T09:17:51.045Z,71.17
2016-11-26T09:19:04.299Z,69.99
2016-11-26T09:20:15.748Z,69.99
2016-11-26T09:21:30.475Z,69.04
2016-11-26T09:22:44.357Z,71.8
2016-11-26T09:23:59.048Z,71.19
2016-11-26T09:25:15.095Z,72.23
2016-11-26T09:26:30.614Z,71.85
2016-11-26T09:27:46.930Z,71.38
2016-11-26T09:29:02.674Z,71.19
2016-11-26T09:30:17.978Z,71.95
2016-11-26T09:31:31.694Z,69.48
2016-11-26T09:32:46.407Z,69.01
2016-11-26T09:34:01.754Z,70.94
2016-11-26T09:35:17.005Z,72.45
2016-11-26T09:36:31.952Z,71.98
2016-11-26T09:37:47.733Z,71.8
2016-11-26T09:39:02.182Z,71.13
2016-11-26T09:40:17.381Z,70.18
2016-11-26T09:41:30.848Z,69.9
2016-11-26T09:42:44.746Z,68.85
2016-11-26T09:44:00.668Z,67.71
2016-11-26T09:45:15.212Z,66.8
2016-11-26T09:46:31.109Z,65.75
2016-11-26T09:47:47.207Z,63.48
2016-11-26T09:49:01.997Z,62.94
2016-11-26T09:50:18.159Z,62.56
2016-11-26T09:51:34.868Z,62.85
2016-11-26T09:52:49.892Z,63.13
2016-11-26T09:54:06.049Z,61.9
2016-11-26T09:55:20.829Z,61.52
2016-11-26T09:56:37.182Z,60.88
2016-11-26T09:57:53.783Z,60.98
2016-11-26T09:59:09.090Z,61.36
2016-11-26T10:00:25.776Z,59.55
2016-11-26T10:01:42.103Z,58.22
2016-11-26T10:02:56.105Z,57.5
2016-11-26T10:04:09.302Z,56.83
2016-11-26T10:05:24.444Z,58.66
2016-11-26T10:06:38.211Z,57.52
2016-11-26T10:07:52.491Z,55.9
2016-11-26T10:09:07.581Z,54.57
2016-11-26T10:10:22.334Z,56.38
2016-11-26T10:11:38.987Z,55.43
2016-11-26T10:12:53.928Z,54.22
2016-11-26T10:14:07.184Z,55.55
2016-11-26T10:15:23.336Z,54.98
2016-11-26T10:16:39.979Z,54.79
2016-11-26T10:17:53.456Z,53.43
2016-11-26T10:19:04.190Z,54.19
2016-11-26T10:20:17.711Z,55.33
2016-11-26T10:21:34.463Z,55.9
2016-11-26T10:22:50.175Z,55.9
2016-11-26T10:24:04.573Z,54.19
2016-11-26T10:25:18.671Z,55.05
2016-11-26T10:26:32.320Z,54.57
2016-11-26T10:27:45.898Z,54.86
2016-11-26T10:29:01.964Z,54.96
2016-11-26T10:30:18.411Z,54.89
2016-11-26T10:31:35.317Z,52.98
2016-11-26T10:32:48.468Z,51.01
2016-11-26T10:34:03.227Z,50.92
2016-11-26T10:35:16.701Z,51.68
2016-11-26T10:36:32.189Z,52.92
2016-11-26T10:37:44.143Z,53.55
2016-11-26T10:39:01.263Z,53.53
2016-11-26T10:40:16.169Z,55.05
2016-11-26T10:41:31.017Z,54
2016-11-26T10:42:45.975Z,54.1
2016-11-26T10:44:02.660Z,55.97
2016-11-26T10:45:17.878Z,57.87
2016-11-26T10:46:30.853Z,58.89
2016-11-26T10:47:47.656Z,60.22
2016-11-26T10:49:00.828Z,61.04
2016-11-26T10:50:13.890Z,62.08
2016-11-26T10:51:29.933Z,63.23
2016-11-26T10:52:47.070Z,62.72
2016-11-26T10:54:02.325Z,63.39
2016-11-26T10:55:17.508Z,63.76
2016-11-26T10:56:30.896Z,65.56
2016-11-26T10:57:45.489Z,66.58
2016-11-26T10:59:00.272Z,66.39
2016-11-26T11:00:13.025Z,67.05
2016-11-26T11:01:29.796Z,68.66
2016-11-26T11:02:40.533Z,69.04
2016-11-26T11:03:53.295Z,69.8
2016-11-26T11:05:09.234Z,69.48
2016-11-26T11:06:25.721Z,69.67
2016-11-26T11:07:42.177Z,69.86
2016-11-26T11:08:58.343Z,70.24
2016-11-26T11:10:10.610Z,71
2016-11-26T11:11:27.429Z,70.81
2016-11-26T11:12:43.308Z,71.38
2016-11-26T11:13:58.823Z,71.85
2016-11-26T11:15:15.757Z,72.33
2016-11-26T11:16:31.344Z,72.67
2016-11-26T11:17:44.929Z,73.33
2016-11-26T11:18:57.694Z,73.8
2016-11-26T11:20:13.443Z,74.28
2016-11-26T11:21:30.038Z,74.85
2016-11-26T11:22:43.231Z,74.56
2016-11-26T11:23:56.859Z,75.23
2016-11-26T11:25:13.415Z,75.38
2016-11-26T11:26:30.692Z,76.51
2016-11-26T11:27:43.998Z,77.08
2016-11-26T11:29:00.712Z,77.75
2016-11-26T11:30:17.145Z,77.94
2016-11-26T11:31:30.520Z,78.94
2016-11-26T11:32:46.913Z,78.85
2016-11-26T11:34:02.121Z,79.32
2016-11-26T11:35:18.441Z,79.03
2016-11-26T11:36:33.217Z,79.5
2016-11-26T11:37:49.773Z,79.03
2016-11-26T11:39:02.926Z,79.32
2016-11-26T11:40:19.073Z,79.98
2016-11-26T11:41:34.330Z,79.79
2016-11-26T11:42:50.119Z,79.79
2016-11-26T11:44:06.584Z,80.36
2016-11-26T11:45:22.701Z,80.45
2016-11-26T11:46:34.468Z,80.64
2016-11-26T11:47:50.625Z,80.64
2016-11-26T11:49:04.641Z,80.55
2016-11-26T11:50:20.816Z,80.93
2016-11-26T11:51:36.304Z,81.4
2016-11-26T11:52:49.914Z,81.21
2016-11-26T11:54:04.962Z,81.3
2016-11-26T11:55:20.115Z,82.06
2016-11-26T11:56:34.629Z,81.68
2016-11-26T11:57:50.937Z,82.21
2016-11-26T11:59:05.887Z,82.31
2016-11-26T12:00:20.091Z,82.31
2016-11-26T12:01:36.221Z,82.12
2016-11-26T12:02:52.396Z,82.4
2016-11-26T12:04:05.609Z,82.87
2016-11-26T12:05:20.453Z,82.5
2016-11-26T12:06:35.469Z,82.78
2016-11-26T12:07:48.956Z,82.5
2016-11-26T12:09:04.675Z,82.4
2016-11-26T12:10:16.832Z,82.78
2016-11-26T12:11:30.478Z,83.15
2016-11-26T12:12:45.487Z,83.15
2016-11-26T12:13:58.806Z,83.53
2016-11-26T12:15:13.805Z,83.15
2016-11-26T12:16:28.189Z,83.63
2016-11-26T12:17:40.070Z,83.82
2016-11-26T12:18:56.267Z,83.44
2016-11-26T12:20:12.397Z,83.25
2016-11-26T12:21:25.531Z,83.25
2016-11-26T12:22:40.401Z,83.15
2016-11-26T12:23:55.913Z,83.15
2016-11-26T12:25:12.249Z,83.82
2016-11-26T12:26:29.003Z,83.34
2016-11-26T12:27:46.023Z,83.63
2016-11-26T12:28:59.808Z,83.44
2016-11-26T12:30:14.736Z,83.63
2016-11-26T12:31:28.536Z,83.63
2016-11-26T12:32:41.952Z,83.82
2016-11-26T12:33:58.713Z,83.44
2016-11-26T12:35:14.858Z,83.82
2016-11-26T12:36:29.727Z,83.53
2016-11-26T12:37:46.579Z,83.72
2016-11-26T12:39:00.318Z,83.63
2016-11-26T12:40:15.197Z,83.53
2016-11-26T12:41:30.768Z,83.44
2016-11-26T12:42:46.679Z,83.72
2016-11-26T12:43:59.493Z,83.72
2016-11-26T12:45:13.147Z,83.53
2016-11-26T12:46:30.225Z,83.34
2016-11-26T12:47:46.928Z,83.15
2016-11-26T12:49:01.387Z,83.34
2016-11-26T12:50:17.689Z,83.82
2016-11-26T12:51:34.644Z,83.44
2016-11-26T12:52:49.262Z,84.01
2016-11-26T12:54:06.240Z,84.2
2016-11-26T12:55:19.113Z,84.48
2016-11-26T12:56:34.880Z,84.29
2016-11-26T12:57:51.173Z,84.58
2016-11-26T12:59:04.646Z,84.58
2016-11-26T13:00:20.988Z,84.86
2016-11-26T13:01:37.860Z,84.67
2016-11-26T13:02:54.615Z,84.29
2016-11-26T13:04:10.757Z,84.86
2016-11-26T13:05:26.416Z,84.95
2016-11-26T13:06:41.028Z,84.77
2016-11-26T13:07:57.500Z,85.14
2016-11-26T13:09:11.140Z,85.14
2016-11-26T13:10:25.634Z,85.52
2016-11-26T13:11:42.249Z,85.52
2016-11-26T13:12:55.019Z,85.52
2016-11-26T13:14:09.873Z,85.52
2016-11-26T13:15:23.350Z,85.33
2016-11-26T13:16:38.027Z,85.61
2016-11-26T13:17:52.550Z,86.18
2016-11-26T13:19:06.162Z,86.18
2016-11-26T13:20:21.081Z,86.28
2016-11-26T13:21:35.502Z,86.37
2016-11-26T13:22:49.206Z,86.47
2016-11-26T13:24:05.718Z,86.66
2016-11-26T13:25:20.306Z,86.28
2016-11-26T13:26:34.524Z,86.28
2016-11-26T13:27:48.082Z,86.85
2016-11-26T13:29:04.212Z,86.75
2016-11-26T13:30:18.971Z,87.23
2016-11-26T13:31:32.395Z,86.94
2016-11-26T13:32:47.073Z,87.04
2016-11-26T13:34:02.331Z,86.94
2016-11-26T13:35:17.489Z,87.04
2016-11-26T13:36:30.886Z,87.04
2016-11-26T13:37:47.329Z,86.85
2016-11-26T13:38:59.283Z,87.13
2016-11-26T13:40:15.958Z,87.32
2016-11-26T13:41:28.936Z,87.32
2016-11-26T13:42:43.915Z,87.13
2016-11-26T13:43:58.445Z,86.94
2016-11-26T13:45:13.159Z,87.13
2016-11-26T13:46:29.706Z,87.41
2016-11-26T13:47:44.387Z,87.04
2016-11-26T13:49:01.082Z,86.75
2016-11-26T13:50:16.682Z,87.41
2016-11-26T13:51:33.375Z,87.41
2016-11-26T13:52:49.839Z,87.41
2016-11-26T13:54:05.972Z,87.41
2016-11-26T13:55:21.236Z,87.23
2016-11-26T13:56:36.562Z,87.79
2016-11-26T13:57:49.719Z,87.41
2016-11-26T13:59:03.152Z,87.79
2016-11-26T14:00:19.108Z,87.41
2016-11-26T14:01:33.603Z,87.79
2016-11-26T14:02:48.675Z,87.98
2016-11-26T14:03:58.987Z,87.32
2016-11-26T14:05:11.982Z,87.51
2016-11-26T14:06:23.965Z,87.79
2016-11-26T14:07:41.127Z,87.79
2016-11-26T14:08:57.481Z,87.79
2016-11-26T14:10:10.737Z,87.7
2016-11-26T14:11:25.034Z,87.51
2016-11-26T14:12:40.948Z,87.51
2016-11-26T14:13:56.267Z,87.98
2016-11-26T14:15:11.276Z,87.79
2016-11-26T14:16:27.672Z,87.79
2016-11-26T14:17:43.805Z,87.98
2016-11-26T14:18:59.775Z,87.88
2016-11-26T14:20:15.335Z,87.79
2016-11-26T14:21:31.042Z,87.88
2016-11-26T14:22:45.963Z,88.07
2016-11-26T14:24:00.774Z,88.17
2016-11-26T14:25:15.721Z,87.98
2016-11-26T14:26:30.142Z,87.88
2016-11-26T14:27:46.464Z,88.17
2016-11-26T14:29:00.170Z,88.26
2016-11-26T14:30:15.762Z,88.26
2016-11-26T14:31:31.816Z,88.45
2016-11-26T14:32:47.317Z,88.17
2016-11-26T14:34:03.339Z,88.55
2016-11-26T14:35:19.657Z,88.36
2016-11-26T14:36:34.953Z,88.55
2016-11-26T14:37:51.858Z,88.36
2016-11-26T14:39:08.351Z,88.26
2016-11-26T14:40:21.838Z,88.17
2016-11-26T14:41:37.080Z,88.36
2016-11-26T14:42:53.486Z,88.36
2016-11-26T14:44:06.651Z,88.17
2016-11-26T14:45:20.928Z,88.07
2016-11-26T14:46:36.250Z,88.07
2016-11-26T14:47:52.977Z,88.36
2016-11-26T14:49:07.795Z,88.36
2016-11-26T14:50:24.492Z,88.07
2016-11-26T14:51:40.893Z,88.17
2016-11-26T14:52:55.446Z,88.07
2016-11-26T14:54:11.121Z,88.03
2016-11-26T14:55:26.458Z,88.55
2016-11-26T14:56:43.195Z,88.12
2016-11-26T14:57:57.484Z,88.6
2016-11-26T14:59:13.840Z,88.69
2016-11-26T15:00:30.169Z,88.22
2016-11-26T15:01:44.906Z,88.79
2016-11-26T15:03:01.204Z,88.88
2016-11-26T15:04:15.856Z,88.5
2016-11-26T15:05:31.111Z,88.69
2016-11-26T15:06:45.141Z,88.98
2016-11-26T15:07:58.830Z,88.69
2016-11-26T15:09:15.131Z,89.07
2016-11-26T15:10:31.894Z,88.69
2016-11-26T15:11:48.041Z,89.26
2016-11-26T15:13:02.744Z,89.07
2016-11-26T15:14:16.617Z,89.26
2016-11-26T15:15:30.147Z,89.83
2016-11-26T15:16:46.459Z,89.45
2016-11-26T15:18:00.001Z,89.17
2016-11-26T15:19:15.004Z,89.54
2016-11-26T15:20:29.849Z,89.17
2016-11-26T15:21:46.748Z,89.45
2016-11-26T15:23:01.217Z,90.11
2016-11-26T15:24:17.674Z,89.92
2016-11-26T15:25:33.818Z,90.01
2016-11-26T15:26:49.948Z,90.11
2016-11-26T15:28:05.031Z,90.2
2016-11-26T15:29:18.514Z,90.2
2016-11-26T15:30:32.871Z,90.11
2016-11-26T15:31:48.270Z,90.77
2016-11-26T15:33:03.999Z,90.49
2016-11-26T15:34:17.402Z,90.39
2016-11-26T15:35:34.407Z,90.3
2016-11-26T15:36:45.919Z,91.24
2016-11-26T15:38:02.069Z,91.15
2016-11-26T15:39:17.214Z,90.96
2016-11-26T15:40:32.737Z,90.96
2016-11-26T15:41:49.464Z,90.96
2016-11-26T15:43:06.615Z,91.34
2016-11-26T15:44:21.592Z,91.24
2016-11-26T15:45:35.652Z,91.24
2016-11-26T15:46:52.275Z,91.53
2016-11-26T15:48:08.559Z,91.24
2016-11-26T15:49:25.356Z,91.15
2016-11-26T15:50:40.022Z,91.43
2016-11-26T15:51:56.109Z,91.43
2016-11-26T15:53:10.133Z,91.24
2016-11-26T15:54:25.217Z,91.43
2016-11-26T15:55:40.655Z,91.43
2016-11-26T15:56:52.823Z,91.43
2016-11-26T15:58:06.618Z,90.86
2016-11-26T15:59:21.099Z,90.86
2016-11-26T16:00:37.970Z,91.53
2016-11-26T16:01:52.607Z,91.43
2016-11-26T16:03:09.135Z,91.24
2016-11-26T16:04:24.716Z,91.15
2016-11-26T16:05:40.875Z,91.05
2016-11-26T16:06:56.266Z,90.96
2016-11-26T16:08:11.513Z,91.05
2016-11-26T16:09:26.443Z,91.24
2016-11-26T16:10:40.393Z,91.53